sensor_id;sensor_type;location;lat;lon;timestamp;pressure;altitude;pressure_sealevel;temperature;humidity
40794;BME280;26502;51.886;15.604;2023-03-19T00:03:44;100641.27;;;4.49;60.87
40794;BME280;26502;51.886;15.604;2023-03-19T00:08:51;100639.75;;;4.42;60.93
40794;BME280;26502;51.886;15.604;2023-03-19T00:13:57;100639.42;;;4.37;61.05
40794;BME280;26502;51.886;15.604;2023-03-19T00:19:03;100641.22;;;4.33;61.13
40794;BME280;26502;51.886;15.604;2023-03-19T00:24:09;100635.48;;;4.22;61.11
40794;BME280;26502;51.886;15.604;2023-03-19T00:29:15;100635.61;;;4.05;61.39
40794;BME280;26502;51.886;15.604;2023-03-19T00:34:21;100637.36;;;4.05;61.52
40794;BME280;26502;51.886;15.604;2023-03-19T00:39:27;100631.41;;;4.02;61.76
40794;BME280;26502;51.886;15.604;2023-03-19T00:44:33;100633.89;;;3.99;61.84
40794;BME280;26502;51.886;15.604;2023-03-19T00:49:41;100627.90;;;4.02;62.09
40794;BME280;26502;51.886;15.604;2023-03-19T00:54:47;100618.04;;;4.04;62.24
40794;BME280;26502;51.886;15.604;2023-03-19T00:59:53;100616.98;;;4.06;62.37
40794;BME280;26502;51.886;15.604;2023-03-19T01:04:59;100619.05;;;4.10;62.41
40794;BME280;26502;51.886;15.604;2023-03-19T01:10:07;100617.27;;;4.12;62.36
40794;BME280;26502;51.886;15.604;2023-03-19T01:15:13;100619.75;;;4.10;62.43
40794;BME280;26502;51.886;15.604;2023-03-19T01:20:20;100617.70;;;4.01;62.49
40794;BME280;26502;51.886;15.604;2023-03-19T01:25:27;100618.20;;;4.06;62.57
40794;BME280;26502;51.886;15.604;2023-03-19T01:30:39;100616.43;;;4.07;62.57
40794;BME280;26502;51.886;15.604;2023-03-19T01:35:47;100622.02;;;4.13;62.72
40794;BME280;26502;51.886;15.604;2023-03-19T01:40:54;100620.60;;;4.15;62.66
40794;BME280;26502;51.886;15.604;2023-03-19T01:46:02;100616.06;;;4.10;62.67
40794;BME280;26502;51.886;15.604;2023-03-19T01:51:31;100622.08;;;4.05;62.76
40794;BME280;26502;51.886;15.604;2023-03-19T01:57:16;100633.70;;;4.00;62.84
40794;BME280;26502;51.886;15.604;2023-03-19T02:03:01;100638.85;;;3.92;62.88
40794;BME280;26502;51.886;15.604;2023-03-19T02:08:31;100639.55;;;3.92;63.10
40794;BME280;26502;51.886;15.604;2023-03-19T02:13:39;100631.09;;;3.94;63.08
40794;BME280;26502;51.886;15.604;2023-03-19T02:18:45;100629.55;;;3.89;63.20
40794;BME280;26502;51.886;15.604;2023-03-19T02:23:56;100633.27;;;3.84;63.20
40794;BME280;26502;51.886;15.604;2023-03-19T02:29:24;100631.72;;;3.79;63.26
40794;BME280;26502;51.886;15.604;2023-03-19T02:34:38;100641.81;;;3.61;63.15
40794;BME280;26502;51.886;15.604;2023-03-19T02:39:58;100647.70;;;3.37;63.30
40794;BME280;26502;51.886;15.604;2023-03-19T02:45:09;100647.15;;;3.45;63.64
40794;BME280;26502;51.886;15.604;2023-03-19T02:50:16;100643.79;;;3.52;63.68
40794;BME280;26502;51.886;15.604;2023-03-19T02:55:22;100645.73;;;3.52;63.88
40794;BME280;26502;51.886;15.604;2023-03-19T03:00:28;100644.30;;;3.56;63.89
40794;BME280;26502;51.886;15.604;2023-03-19T03:05:35;100641.31;;;3.55;63.93
40794;BME280;26502;51.886;15.604;2023-03-19T03:10:40;100640.43;;;3.54;64.11
40794;BME280;26502;51.886;15.604;2023-03-19T03:15:47;100629.90;;;3.56;64.20
40794;BME280;26502;51.886;15.604;2023-03-19T03:20:53;100631.30;;;3.56;64.28
40794;BME280;26502;51.886;15.604;2023-03-19T03:25:59;100635.29;;;3.63;64.35
40794;BME280;26502;51.886;15.604;2023-03-19T03:31:06;100642.67;;;3.65;64.41
40794;BME280;26502;51.886;15.604;2023-03-19T03:36:13;100642.66;;;3.68;64.55
40794;BME280;26502;51.886;15.604;2023-03-19T03:41:19;100646.85;;;3.74;64.66
40794;BME280;26502;51.886;15.604;2023-03-19T03:46:25;100655.27;;;3.78;64.60
40794;BME280;26502;51.886;15.604;2023-03-19T03:51:32;100652.30;;;3.72;64.72
40794;BME280;26502;51.886;15.604;2023-03-19T03:56:38;100652.31;;;3.67;64.68
40794;BME280;26502;51.886;15.604;2023-03-19T04:01:45;100652.53;;;3.61;64.83
40794;BME280;26502;51.886;15.604;2023-03-19T04:06:51;100660.10;;;3.55;64.88
40794;BME280;26502;51.886;15.604;2023-03-19T04:12:06;100661.01;;;3.49;64.95
40794;BME280;26502;51.886;15.604;2023-03-19T04:17:13;100657.83;;;3.51;65.15
40794;BME280;26502;51.886;15.604;2023-03-19T04:22:19;100656.59;;;3.57;65.11
40794;BME280;26502;51.886;15.604;2023-03-19T04:27:25;100648.48;;;3.60;65.09
40794;BME280;26502;51.886;15.604;2023-03-19T04:32:31;100651.64;;;3.65;65.04
40794;BME280;26502;51.886;15.604;2023-03-19T04:37:40;100653.05;;;3.64;65.14
40794;BME280;26502;51.886;15.604;2023-03-19T04:42:47;100655.89;;;3.57;65.08
40794;BME280;26502;51.886;15.604;2023-03-19T04:48:22;100657.09;;;3.59;65.29
40794;BME280;26502;51.886;15.604;2023-03-19T04:53:29;100651.99;;;3.63;65.44
40794;BME280;26502;51.886;15.604;2023-03-19T04:58:36;100657.80;;;3.57;65.57
40794;BME280;26502;51.886;15.604;2023-03-19T05:03:42;100654.64;;;3.59;65.78
40794;BME280;26502;51.886;15.604;2023-03-19T05:08:49;100652.50;;;3.68;65.94
40794;BME280;26502;51.886;15.604;2023-03-19T05:13:56;100655.86;;;3.63;65.88
40794;BME280;26502;51.886;15.604;2023-03-19T05:19:05;100659.55;;;3.62;65.98
40794;BME280;26502;51.886;15.604;2023-03-19T05:24:13;100660.91;;;3.70;66.21
40794;BME280;26502;51.886;15.604;2023-03-19T05:29:20;100667.91;;;3.77;66.30
40794;BME280;26502;51.886;15.604;2023-03-19T05:34:37;100670.69;;;3.82;66.40
40794;BME280;26502;51.886;15.604;2023-03-19T05:39:44;100668.74;;;3.84;66.64
40794;BME280;26502;51.886;15.604;2023-03-19T05:44:51;100672.77;;;3.90;66.75
40794;BME280;26502;51.886;15.604;2023-03-19T05:50:20;100676.95;;;3.95;66.69
40794;BME280;26502;51.886;15.604;2023-03-19T05:55:49;100677.96;;;4.05;66.82
40794;BME280;26502;51.886;15.604;2023-03-19T06:00:56;100679.83;;;4.18;66.84
40794;BME280;26502;51.886;15.604;2023-03-19T06:06:03;100683.09;;;4.29;67.12
40794;BME280;26502;51.886;15.604;2023-03-19T06:11:13;100691.27;;;4.41;67.02
40794;BME280;26502;51.886;15.604;2023-03-19T06:16:19;100694.69;;;4.54;66.99
40794;BME280;26502;51.886;15.604;2023-03-19T06:21:30;100690.35;;;4.70;67.00
40794;BME280;26502;51.886;15.604;2023-03-19T06:26:40;100697.64;;;4.83;67.06
40794;BME280;26502;51.886;15.604;2023-03-19T06:31:52;100704.02;;;4.95;66.88
40794;BME280;26502;51.886;15.604;2023-03-19T06:37:06;100703.73;;;5.10;67.04
40794;BME280;26502;51.886;15.604;2023-03-19T06:42:12;100700.84;;;5.16;67.07
40794;BME280;26502;51.886;15.604;2023-03-19T06:47:18;100707.41;;;5.29;67.16
40794;BME280;26502;51.886;15.604;2023-03-19T06:52:24;100707.28;;;5.41;67.15
40794;BME280;26502;51.886;15.604;2023-03-19T06:57:31;100714.36;;;5.54;67.14
40794;BME280;26502;51.886;15.604;2023-03-19T07:02:37;100707.88;;;5.67;67.29
40794;BME280;26502;51.886;15.604;2023-03-19T07:07:44;100699.43;;;5.80;67.25
40794;BME280;26502;51.886;15.604;2023-03-19T07:12:51;100697.25;;;6.00;67.29
40794;BME280;26502;51.886;15.604;2023-03-19T07:17:58;100703.94;;;6.16;67.20
40794;BME280;26502;51.886;15.604;2023-03-19T07:23:05;100704.58;;;6.34;67.46
40794;BME280;26502;51.886;15.604;2023-03-19T07:28:12;100713.17;;;6.60;67.49
40794;BME280;26502;51.886;15.604;2023-03-19T07:33:21;100719.88;;;6.82;67.13
40794;BME280;26502;51.886;15.604;2023-03-19T07:38:28;100715.45;;;7.05;67.12
40794;BME280;26502;51.886;15.604;2023-03-19T07:43:35;100716.97;;;7.28;67.08
40794;BME280;26502;51.886;15.604;2023-03-19T07:48:43;100725.91;;;7.51;67.01
40794;BME280;26502;51.886;15.604;2023-03-19T07:53:49;100726.40;;;7.71;66.79
40794;BME280;26502;51.886;15.604;2023-03-19T07:58:56;100724.15;;;7.86;66.94
40794;BME280;26502;51.886;15.604;2023-03-19T08:04:03;100722.30;;;7.99;66.74
40794;BME280;26502;51.886;15.604;2023-03-19T08:09:09;100726.63;;;8.12;65.81
40794;BME280;26502;51.886;15.604;2023-03-19T08:14:15;100724.63;;;8.22;65.13
40794;BME280;26502;51.886;15.604;2023-03-19T08:19:26;100731.65;;;8.33;64.79
40794;BME280;26502;51.886;15.604;2023-03-19T08:24:32;100730.24;;;8.40;64.50
40794;BME280;26502;51.886;15.604;2023-03-19T08:29:39;100735.11;;;8.54;64.30
40794;BME280;26502;51.886;15.604;2023-03-19T08:34:45;100738.90;;;8.66;64.01
40794;BME280;26502;51.886;15.604;2023-03-19T08:39:52;100726.45;;;8.83;63.59
40794;BME280;26502;51.886;15.604;2023-03-19T08:44:58;100726.52;;;9.01;63.09
40794;BME280;26502;51.886;15.604;2023-03-19T08:50:06;100743.04;;;9.21;62.71
40794;BME280;26502;51.886;15.604;2023-03-19T08:55:12;100737.12;;;9.51;62.67
40794;BME280;26502;51.886;15.604;2023-03-19T09:00:21;100732.85;;;9.71;61.92
40794;BME280;26502;51.886;15.604;2023-03-19T09:05:27;100732.05;;;9.92;61.39
40794;BME280;26502;51.886;15.604;2023-03-19T09:10:33;100730.80;;;10.11;60.15
40794;BME280;26502;51.886;15.604;2023-03-19T09:15:39;100734.29;;;10.31;59.55
40794;BME280;26502;51.886;15.604;2023-03-19T09:20:47;100731.91;;;10.46;59.20
40794;BME280;26502;51.886;15.604;2023-03-19T09:25:53;100727.58;;;10.60;58.81
40794;BME280;26502;51.886;15.604;2023-03-19T09:30:59;100714.69;;;10.74;58.53
40794;BME280;26502;51.886;15.604;2023-03-19T09:36:10;100705.73;;;10.92;58.05
40794;BME280;26502;51.886;15.604;2023-03-19T09:41:22;100708.05;;;11.03;57.83
40794;BME280;26502;51.886;15.604;2023-03-19T09:46:37;100698.10;;;11.18;57.61
40794;BME280;26502;51.886;15.604;2023-03-19T09:51:50;100697.20;;;11.34;57.08
40794;BME280;26502;51.886;15.604;2023-03-19T09:56:57;100698.83;;;11.48;56.88
40794;BME280;26502;51.886;15.604;2023-03-19T10:02:28;100700.09;;;11.58;56.58
40794;BME280;26502;51.886;15.604;2023-03-19T10:07:50;100700.02;;;11.69;56.15
40794;BME280;26502;51.886;15.604;2023-03-19T10:13:06;100697.48;;;11.75;54.43
40794;BME280;26502;51.886;15.604;2023-03-19T10:18:17;100694.69;;;11.89;54.50
40794;BME280;26502;51.886;15.604;2023-03-19T10:23:38;100695.73;;;11.99;54.38
40794;BME280;26502;51.886;15.604;2023-03-19T10:28:56;100699.29;;;12.04;53.03
40794;BME280;26502;51.886;15.604;2023-03-19T10:34:17;100705.69;;;12.14;52.43
40794;BME280;26502;51.886;15.604;2023-03-19T10:39:26;100702.59;;;12.29;52.46
40794;BME280;26502;51.886;15.604;2023-03-19T10:44:35;100693.60;;;12.45;52.55
40794;BME280;26502;51.886;15.604;2023-03-19T10:49:44;100694.11;;;12.63;52.58
40794;BME280;26502;51.886;15.604;2023-03-19T10:54:55;100686.76;;;12.73;52.40
40794;BME280;26502;51.886;15.604;2023-03-19T11:00:13;100681.55;;;12.96;52.50
40794;BME280;26502;51.886;15.604;2023-03-19T11:05:25;100680.76;;;13.19;52.14
40794;BME280;26502;51.886;15.604;2023-03-19T11:10:33;100683.11;;;13.38;51.95
40794;BME280;26502;51.886;15.604;2023-03-19T11:15:39;100683.20;;;13.61;51.96
40794;BME280;26502;51.886;15.604;2023-03-19T11:20:52;100676.54;;;13.78;51.91
40794;BME280;26502;51.886;15.604;2023-03-19T11:26:01;100676.27;;;13.88;51.56
40794;BME280;26502;51.886;15.604;2023-03-19T11:31:14;100675.36;;;14.00;51.27
40794;BME280;26502;51.886;15.604;2023-03-19T11:36:26;100673.47;;;14.06;51.00
40794;BME280;26502;51.886;15.604;2023-03-19T11:41:45;100671.98;;;14.15;50.97
40794;BME280;26502;51.886;15.604;2023-03-19T11:46:59;100673.39;;;14.30;50.80
40794;BME280;26502;51.886;15.604;2023-03-19T11:52:17;100673.31;;;14.43;50.54
40794;BME280;26502;51.886;15.604;2023-03-19T11:57:31;100668.13;;;14.54;50.05
40794;BME280;26502;51.886;15.604;2023-03-19T12:02:58;100669.17;;;14.63;49.88
40794;BME280;26502;51.886;15.604;2023-03-19T12:08:21;100666.64;;;14.70;49.61
40794;BME280;26502;51.886;15.604;2023-03-19T12:13:38;100662.06;;;14.87;49.47
40794;BME280;26502;51.886;15.604;2023-03-19T12:19:05;100657.70;;;15.06;49.39
40794;BME280;26502;51.886;15.604;2023-03-19T12:24:20;100652.00;;;15.19;48.64
40794;BME280;26502;51.886;15.604;2023-03-19T12:29:36;100641.27;;;15.09;48.43
40794;BME280;26502;51.886;15.604;2023-03-19T12:34:51;100640.09;;;15.18;47.90
40794;BME280;26502;51.886;15.604;2023-03-19T12:40:06;100632.36;;;15.32;47.27
40794;BME280;26502;51.886;15.604;2023-03-19T12:45:32;100635.45;;;15.38;46.88
40794;BME280;26502;51.886;15.604;2023-03-19T12:50:42;100628.11;;;15.42;46.54
40794;BME280;26502;51.886;15.604;2023-03-19T12:55:48;100620.25;;;15.55;46.55
40794;BME280;26502;51.886;15.604;2023-03-19T13:01:00;100619.90;;;15.58;46.37
40794;BME280;26502;51.886;15.604;2023-03-19T13:06:14;100616.24;;;15.46;45.79
40794;BME280;26502;51.886;15.604;2023-03-19T13:11:34;100613.52;;;15.47;45.43
40794;BME280;26502;51.886;15.604;2023-03-19T13:16:45;100612.15;;;15.59;45.22
40794;BME280;26502;51.886;15.604;2023-03-19T13:21:56;100611.42;;;15.69;45.16
40794;BME280;26502;51.886;15.604;2023-03-19T13:27:04;100611.88;;;15.87;45.31
40794;BME280;26502;51.886;15.604;2023-03-19T13:32:26;100611.71;;;15.94;45.13
40794;BME280;26502;51.886;15.604;2023-03-19T13:37:34;100606.77;;;15.79;44.57
40794;BME280;26502;51.886;15.604;2023-03-19T13:42:41;100603.46;;;15.87;44.69
40794;BME280;26502;51.886;15.604;2023-03-19T13:47:48;100605.97;;;16.07;44.55
40794;BME280;26502;51.886;15.604;2023-03-19T13:53:18;100602.46;;;16.18;44.66
40794;BME280;26502;51.886;15.604;2023-03-19T13:58:29;100601.70;;;16.34;44.37
40794;BME280;26502;51.886;15.604;2023-03-19T14:03:54;100598.32;;;16.46;44.19
40794;BME280;26502;51.886;15.604;2023-03-19T14:09:05;100594.02;;;16.53;44.26
40794;BME280;26502;51.886;15.604;2023-03-19T14:14:15;100591.63;;;16.57;43.96
40794;BME280;26502;51.886;15.604;2023-03-19T14:19:21;100592.91;;;16.47;44.13
40794;BME280;26502;51.886;15.604;2023-03-19T14:24:34;100592.73;;;16.44;44.02
40794;BME280;26502;51.886;15.604;2023-03-19T14:29:43;100593.95;;;16.38;43.84
40794;BME280;26502;51.886;15.604;2023-03-19T14:34:48;100595.88;;;16.33;43.95
40794;BME280;26502;51.886;15.604;2023-03-19T14:39:58;100594.21;;;16.15;43.92
40794;BME280;26502;51.886;15.604;2023-03-19T14:45:30;100590.83;;;16.05;44.17
40794;BME280;26502;51.886;15.604;2023-03-19T14:50:54;100591.73;;;15.99;44.30
40794;BME280;26502;51.886;15.604;2023-03-19T14:56:12;100595.90;;;15.85;44.13
40794;BME280;26502;51.886;15.604;2023-03-19T15:01:19;100596.84;;;15.70;44.10
40794;BME280;26502;51.886;15.604;2023-03-19T15:06:26;100598.94;;;15.68;44.39
40794;BME280;26502;51.886;15.604;2023-03-19T15:11:44;100597.07;;;15.60;44.42
40794;BME280;26502;51.886;15.604;2023-03-19T15:17:00;100591.30;;;15.50;44.39
40794;BME280;26502;51.886;15.604;2023-03-19T15:22:14;100591.59;;;15.42;44.67
40794;BME280;26502;51.886;15.604;2023-03-19T15:27:22;100591.89;;;15.33;44.72
40794;BME280;26502;51.886;15.604;2023-03-19T15:32:36;100592.84;;;15.19;44.89
40794;BME280;26502;51.886;15.604;2023-03-19T15:37:45;100590.25;;;15.10;45.15
40794;BME280;26502;51.886;15.604;2023-03-19T15:42:53;100590.36;;;15.01;45.39
40794;BME280;26502;51.886;15.604;2023-03-19T15:48:03;100590.13;;;14.92;45.78
40794;BME280;26502;51.886;15.604;2023-03-19T15:53:14;100597.26;;;14.82;46.00
40794;BME280;26502;51.886;15.604;2023-03-19T15:58:23;100600.55;;;14.70;46.66
40794;BME280;26502;51.886;15.604;2023-03-19T16:03:33;100601.03;;;14.56;47.10
40794;BME280;26502;51.886;15.604;2023-03-19T16:08:48;100604.13;;;14.48;47.46
40794;BME280;26502;51.886;15.604;2023-03-19T16:13:58;100605.51;;;14.38;47.79
40794;BME280;26502;51.886;15.604;2023-03-19T16:19:05;100612.31;;;14.26;47.96
40794;BME280;26502;51.886;15.604;2023-03-19T16:24:34;100616.86;;;14.21;48.30
40794;BME280;26502;51.886;15.604;2023-03-19T16:29:43;100618.02;;;14.11;48.60
40794;BME280;26502;51.886;15.604;2023-03-19T16:34:51;100628.87;;;13.97;49.12
40794;BME280;26502;51.886;15.604;2023-03-19T16:40:02;100637.27;;;13.90;49.24
40794;BME280;26502;51.886;15.604;2023-03-19T16:45:24;100640.74;;;13.65;49.47
40794;BME280;26502;51.886;15.604;2023-03-19T16:50:32;100649.91;;;13.51;50.04
40794;BME280;26502;51.886;15.604;2023-03-19T16:55:40;100652.64;;;13.38;50.47
40794;BME280;26502;51.886;15.604;2023-03-19T17:00:47;100654.85;;;13.32;50.95
40794;BME280;26502;51.886;15.604;2023-03-19T17:05:53;100656.33;;;13.27;51.28
40794;BME280;26502;51.886;15.604;2023-03-19T17:10:59;100661.27;;;13.24;51.73
40794;BME280;26502;51.886;15.604;2023-03-19T17:16:07;100661.70;;;13.10;51.66
40794;BME280;26502;51.886;15.604;2023-03-19T17:21:16;100661.58;;;12.88;51.88
40794;BME280;26502;51.886;15.604;2023-03-19T17:26:26;100665.16;;;12.70;52.34
40794;BME280;26502;51.886;15.604;2023-03-19T17:31:31;100661.40;;;12.57;53.05
40794;BME280;26502;51.886;15.604;2023-03-19T17:36:38;100661.92;;;12.45;53.33
40794;BME280;26502;51.886;15.604;2023-03-19T17:41:46;100659.13;;;12.34;53.48
40794;BME280;26502;51.886;15.604;2023-03-19T17:46:54;100664.04;;;12.23;53.81
40794;BME280;26502;51.886;15.604;2023-03-19T17:52:01;100669.31;;;11.96;53.99
40794;BME280;26502;51.886;15.604;2023-03-19T17:57:11;100665.80;;;11.86;54.36
40794;BME280;26502;51.886;15.604;2023-03-19T18:02:26;100663.91;;;11.74;54.58
40794;BME280;26502;51.886;15.604;2023-03-19T18:07:35;100663.15;;;11.56;55.05
40794;BME280;26502;51.886;15.604;2023-03-19T18:12:42;100661.86;;;11.57;55.46
40794;BME280;26502;51.886;15.604;2023-03-19T18:17:51;100662.98;;;11.56;55.94
40794;BME280;26502;51.886;15.604;2023-03-19T18:22:59;100662.35;;;11.53;56.16
40794;BME280;26502;51.886;15.604;2023-03-19T18:28:05;100662.70;;;11.59;56.24
40794;BME280;26502;51.886;15.604;2023-03-19T18:33:17;100661.95;;;11.64;56.43
40794;BME280;26502;51.886;15.604;2023-03-19T18:38:30;100661.41;;;11.70;56.53
40794;BME280;26502;51.886;15.604;2023-03-19T18:43:36;100659.91;;;11.71;56.64
40794;BME280;26502;51.886;15.604;2023-03-19T18:48:43;100662.14;;;11.64;56.62
40794;BME280;26502;51.886;15.604;2023-03-19T18:53:49;100667.15;;;11.44;56.61
40794;BME280;26502;51.886;15.604;2023-03-19T18:58:56;100666.05;;;11.25;56.83
40794;BME280;26502;51.886;15.604;2023-03-19T19:04:04;100666.77;;;11.14;57.12
40794;BME280;26502;51.886;15.604;2023-03-19T19:09:12;100674.31;;;11.02;57.34
40794;BME280;26502;51.886;15.604;2023-03-19T19:14:21;100680.80;;;10.83;57.37
40794;BME280;26502;51.886;15.604;2023-03-19T19:19:30;100682.53;;;10.74;57.85
40794;BME280;26502;51.886;15.604;2023-03-19T19:24:37;100686.02;;;10.71;58.03
40794;BME280;26502;51.886;15.604;2023-03-19T19:29:44;100687.24;;;10.71;58.26
40794;BME280;26502;51.886;15.604;2023-03-19T19:34:51;100685.41;;;10.73;58.41
40794;BME280;26502;51.886;15.604;2023-03-19T19:39:57;100687.21;;;10.72;58.70
40794;BME280;26502;51.886;15.604;2023-03-19T19:45:06;100683.73;;;10.75;58.87
40794;BME280;26502;51.886;15.604;2023-03-19T19:50:23;100691.17;;;10.71;58.76
40794;BME280;26502;51.886;15.604;2023-03-19T19:55:31;100693.30;;;10.60;59.07
40794;BME280;26502;51.886;15.604;2023-03-19T20:00:39;100699.17;;;10.59;59.17
40794;BME280;26502;51.886;15.604;2023-03-19T20:05:48;100697.69;;;10.61;59.34
40794;BME280;26502;51.886;15.604;2023-03-19T20:10:57;100698.95;;;10.60;59.54
40794;BME280;26502;51.886;15.604;2023-03-19T20:16:08;100703.52;;;10.51;59.65
40794;BME280;26502;51.886;15.604;2023-03-19T20:21:18;100703.17;;;10.39;59.73
40794;BME280;26502;51.886;15.604;2023-03-19T20:26:27;100703.24;;;10.37;59.93
40794;BME280;26502;51.886;15.604;2023-03-19T20:31:35;100704.63;;;10.26;59.93
40794;BME280;26502;51.886;15.604;2023-03-19T20:36:44;100701.89;;;10.10;60.23
40794;BME280;26502;51.886;15.604;2023-03-19T20:41:53;100704.06;;;10.03;60.29
40794;BME280;26502;51.886;15.604;2023-03-19T20:47:02;100700.11;;;9.87;60.46
40794;BME280;26502;51.886;15.604;2023-03-19T20:52:10;100702.27;;;9.79;60.53
40794;BME280;26502;51.886;15.604;2023-03-19T20:57:24;100707.90;;;9.69;60.86
40794;BME280;26502;51.886;15.604;2023-03-19T21:02:34;100711.87;;;9.60;60.85
40794;BME280;26502;51.886;15.604;2023-03-19T21:07:41;100715.19;;;9.55;61.01
40794;BME280;26502;51.886;15.604;2023-03-19T21:12:50;100716.67;;;9.46;61.17
40794;BME280;26502;51.886;15.604;2023-03-19T21:17:56;100712.41;;;9.39;61.31
40794;BME280;26502;51.886;15.604;2023-03-19T21:23:09;100715.41;;;9.40;61.51
40794;BME280;26502;51.886;15.604;2023-03-19T21:28:23;100718.22;;;9.35;61.70
40794;BME280;26502;51.886;15.604;2023-03-19T21:33:32;100720.98;;;9.31;61.91
40794;BME280;26502;51.886;15.604;2023-03-19T21:38:39;100722.77;;;9.17;61.84
40794;BME280;26502;51.886;15.604;2023-03-19T21:43:47;100721.33;;;8.96;62.06
40794;BME280;26502;51.886;15.604;2023-03-19T21:48:57;100722.58;;;8.82;62.37
40794;BME280;26502;51.886;15.604;2023-03-19T21:54:03;100725.07;;;8.82;62.51
40794;BME280;26502;51.886;15.604;2023-03-19T21:59:14;100718.38;;;8.73;62.71
40794;BME280;26502;51.886;15.604;2023-03-19T22:04:20;100716.30;;;8.63;62.92
40794;BME280;26502;51.886;15.604;2023-03-19T22:09:26;100712.73;;;8.57;63.08
40794;BME280;26502;51.886;15.604;2023-03-19T22:14:32;100707.44;;;8.49;63.24
40794;BME280;26502;51.886;15.604;2023-03-19T22:19:39;100713.37;;;8.36;63.41
40794;BME280;26502;51.886;15.604;2023-03-19T22:24:45;100714.67;;;8.25;63.70
40794;BME280;26502;51.886;15.604;2023-03-19T22:29:51;100712.56;;;8.16;63.92
40794;BME280;26502;51.886;15.604;2023-03-19T22:34:57;100706.82;;;8.12;64.06
40794;BME280;26502;51.886;15.604;2023-03-19T22:40:03;100708.42;;;8.11;64.32
40794;BME280;26502;51.886;15.604;2023-03-19T22:45:16;100705.60;;;8.11;64.47
40794;BME280;26502;51.886;15.604;2023-03-19T22:50:26;100706.61;;;8.13;64.70
40794;BME280;26502;51.886;15.604;2023-03-19T22:55:33;100706.44;;;8.13;64.80
40794;BME280;26502;51.886;15.604;2023-03-19T23:00:40;100706.41;;;8.14;64.89
40794;BME280;26502;51.886;15.604;2023-03-19T23:05:50;100708.78;;;8.12;64.98
40794;BME280;26502;51.886;15.604;2023-03-19T23:10:56;100708.13;;;8.09;65.15
40794;BME280;26502;51.886;15.604;2023-03-19T23:16:05;100708.73;;;8.05;65.29
40794;BME280;26502;51.886;15.604;2023-03-19T23:21:19;100709.80;;;8.05;65.41
40794;BME280;26502;51.886;15.604;2023-03-19T23:26:30;100709.14;;;8.11;65.65
40794;BME280;26502;51.886;15.604;2023-03-19T23:31:38;100707.50;;;8.21;65.70
40794;BME280;26502;51.886;15.604;2023-03-19T23:36:44;100704.48;;;8.37;65.90
40794;BME280;26502;51.886;15.604;2023-03-19T23:41:51;100704.08;;;8.48;65.97
40794;BME280;26502;51.886;15.604;2023-03-19T23:47:00;100705.85;;;8.56;66.28
40794;BME280;26502;51.886;15.604;2023-03-19T23:52:08;100704.55;;;8.58;66.49
40794;BME280;26502;51.886;15.604;2023-03-19T23:57:18;100707.33;;;8.61;66.72
